Portrush, United Kingdom
Current Conditions -  °F | °C
As of 6:20 AM on Monday 26 Jan 2015 (Local Time) from EGAE Reporting Station
Scattered Clouds Scattered Clouds  
Wind Chill: 37°   Ceiling: Unl
Heat Index: 43°   Visibility: 6mi
Dew Point: 39°   Wind: 10mph
Humidity: 87%   Direction: 250°WSW
Pressure: 30.12"   Gusts: NA
Location:  55.2°N, 6.65°W
Report Text: EGAE 260620Z 25009KT 9999 FEW014 SCT020 06/04 Q1020
Loading
Personal Weather Stations






























Interactive Weather Map New forecast layout! Learn more

10-Day Weather Forecast

Advertisements
Track Severe Weather on mobile